Time;durP1;ratioP1;P1;durP2;ratioP2;P2;SDS_P1;SDS_P2;PMS_P1;PMS_P2;Temp;Humidity;BMP_temperature;BMP_pressure;BME280_temperature;BME280_humidity;BME280_pressure;Samples;Min_cycle;Max_cycle;Signal;HPM_P1;HPM_P2
2021/10/12 00:01:22;;;;;;;1.02;0.25;;;;;;;;;;5016231;28;20117;-68
2021/10/12 00:03:49;;;;;;;0.28;0.10;;;;;;;;;;5018793;28;20036;-68
2021/10/12 00:06:15;;;;;;;3.30;0.30;;;;;;;;;;5031107;28;20470;-68
2021/10/12 00:08:40;;;;;;;2.00;0.28;;;;;;;;;;5021788;28;20053;-68
2021/10/12 00:11:06;;;;;;;2.92;0.22;;;;;;;;;;5015349;28;20034;-68
2021/10/12 00:13:33;;;;;;;8.90;0.50;;;;;;;;;;5032169;28;20108;-68
2021/10/12 00:15:59;;;;;;;0.15;0.15;;;;;;;;;;5031029;28;20473;-68
2021/10/12 00:18:25;;;;;;;0.47;0.30;;;;;;;;;;5015904;28;20034;-68
2021/10/12 00:20:51;;;;;;;1.48;0.25;;;;;;;;;;5010947;28;20466;-68
2021/10/12 00:23:17;;;;;;;0.10;0.10;;;;;;;;;;5011910;28;20076;-69
2021/10/12 00:25:42;;;;;;;0.80;0.17;;;;;;;;;;5030593;28;20666;-68
2021/10/12 00:28:08;;;;;;;0.40;0.20;;;;;;;;;;5017651;28;20029;-68
2021/10/12 00:30:34;;;;;;;0.57;0.20;;;;;;;;;;5011733;28;20021;-68
2021/10/12 00:32:59;;;;;;;0.45;0.17;;;;;;;;;;5028282;28;20040;-68
2021/10/12 00:35:26;;;;;;;0.35;0.20;;;;;;;;;;5020532;28;20021;-68
2021/10/12 00:37:51;;;;;;;0.20;0.20;;;;;;;;;;5024776;28;20386;-68
2021/10/12 00:40:17;;;;;;;0.10;0.10;;;;;;;;;;5026807;28;20029;-69
2021/10/12 00:42:42;;;;;;;0.13;0.13;;;;;;;;;;5029351;28;20032;-68
2021/10/12 00:45:13;;;;;;;0.30;0.20;;;;;;;;;;5030849;28;20025;-68
2021/10/12 00:47:39;;;;;;;0.40;0.30;;;;;;;;;;5020853;28;20036;-68
2021/10/12 00:50:07;;;;;;;2.35;0.40;;;;;;;;;;5029239;28;20021;-68
2021/10/12 00:52:35;;;;;;;0.20;0.20;;;;;;;;;;5026236;28;20047;-67
2021/10/12 00:55:01;;;;;;;0.30;0.30;;;;;;;;;;5014484;28;20026;-67
2021/10/12 00:57:26;;;;;;;0.30;0.30;;;;;;;;;;5030450;28;20033;-68
2021/10/12 00:59:53;;;;;;;0.43;0.20;;;;;;;;;;5014310;28;20056;-67
2021/10/12 01:02:19;;;;;;;1.20;0.25;;;;;;;;;;5035761;28;20026;-68
2021/10/12 01:04:46;;;;;;;0.38;0.35;;;;;;;;;;5020442;28;20087;-68
2021/10/12 01:07:13;;;;;;;1.65;0.65;;;;;;;;;;5014387;28;20108;-67
2021/10/12 01:09:39;;;;;;;0.55;0.40;;;;;;;;;;5014830;28;20494;-67
2021/10/12 01:12:05;;;;;;;0.30;0.30;;;;;;;;;;5028733;28;20054;-67
2021/10/12 01:14:32;;;;;;;0.47;0.47;;;;;;;;;;5033911;28;20448;-67
2021/10/12 01:16:57;;;;;;;0.40;0.40;;;;;;;;;;5021048;28;20038;-68
2021/10/12 01:19:24;;;;;;;0.77;0.50;;;;;;;;;;5033498;28;20029;-68
2021/10/12 01:21:50;;;;;;;0.70;0.40;;;;;;;;;;5033900;28;20026;-68
2021/10/12 01:24:17;;;;;;;0.50;0.50;;;;;;;;;;5042480;28;20512;-68
2021/10/12 01:26:45;;;;;;;0.50;0.50;;;;;;;;;;5033374;28;20115;-68
2021/10/12 01:29:14;;;;;;;1.77;0.40;;;;;;;;;;5032217;28;20037;-68
2021/10/12 01:31:39;;;;;;;0.55;0.40;;;;;;;;;;5041347;28;20118;-67
2021/10/12 01:34:18;;;;;;;0.63;0.50;;;;;;;;;;5030566;28;20512;-68
2021/10/12 01:36:45;;;;;;;0.55;0.50;;;;;;;;;;5016970;28;20022;-68
2021/10/12 01:39:11;;;;;;;0.60;0.45;;;;;;;;;;5035023;28;20029;-68
2021/10/12 01:41:36;;;;;;;0.75;0.50;;;;;;;;;;5030867;28;20596;-68
2021/10/12 01:44:03;;;;;;;0.50;0.40;;;;;;;;;;5032638;28;20025;-68
2021/10/12 01:46:29;;;;;;;0.95;0.50;;;;;;;;;;5014486;28;20038;-71
2021/10/12 01:48:55;;;;;;;0.57;0.50;;;;;;;;;;5041770;28;20028;-68
2021/10/12 01:51:21;;;;;;;0.52;0.40;;;;;;;;;;5013753;28;20022;-68
2021/10/12 01:53:47;;;;;;;0.95;0.40;;;;;;;;;;5017775;28;20036;-68
2021/10/12 01:56:13;;;;;;;0.75;0.30;;;;;;;;;;5025818;28;20505;-68
2021/10/12 01:58:39;;;;;;;0.40;0.40;;;;;;;;;;5023802;28;20112;-68
2021/10/12 02:01:05;;;;;;;0.73;0.50;;;;;;;;;;5018821;28;20034;-68
2021/10/12 02:03:31;;;;;;;1.20;0.40;;;;;;;;;;5023646;28;20025;-68
2021/10/12 02:05:58;;;;;;;0.93;0.40;;;;;;;;;;5022656;28;20049;-68
2021/10/12 02:08:23;;;;;;;1.65;0.40;;;;;;;;;;5013445;28;20508;-68
2021/10/12 02:10:49;;;;;;;0.20;0.20;;;;;;;;;;5029466;28;20104;-68
2021/10/12 02:13:15;;;;;;;1.00;0.30;;;;;;;;;;5031452;28;20033;-68
2021/10/12 02:15:41;;;;;;;0.40;0.20;;;;;;;;;;5019038;28;20539;-68
2021/10/12 02:18:07;;;;;;;1.83;0.40;;;;;;;;;;5025382;28;20026;-68
2021/10/12 02:20:32;;;;;;;3.17;0.50;;;;;;;;;;5032193;28;20119;-68
2021/10/12 02:22:58;;;;;;;1.00;0.50;;;;;;;;;;5031961;28;20029;-68
2021/10/12 02:25:24;;;;;;;0.25;0.25;;;;;;;;;;5012896;28;20038;-67
2021/10/12 02:27:50;;;;;;;0.20;0.20;;;;;;;;;;5022407;28;20493;-68
2021/10/12 02:30:15;;;;;;;2.40;0.60;;;;;;;;;;5026328;28;20156;-68
2021/10/12 02:32:41;;;;;;;0.65;0.55;;;;;;;;;;5012725;28;20488;-68
2021/10/12 02:35:07;;;;;;;2.83;0.63;;;;;;;;;;5020944;28;20318;-68
2021/10/12 02:37:33;;;;;;;0.40;0.40;;;;;;;;;;5022549;28;20029;-67
2021/10/12 02:39:58;;;;;;;2.55;0.60;;;;;;;;;;5025202;28;20165;-67
2021/10/12 02:42:25;;;;;;;2.05;0.68;;;;;;;;;;5012548;28;20045;-67
2021/10/12 02:44:51;;;;;;;0.75;0.50;;;;;;;;;;5017238;28;20474;-67
2021/10/12 02:47:17;;;;;;;1.13;0.47;;;;;;;;;;5020143;28;20033;-67
2021/10/12 02:49:42;;;;;;;2.03;0.40;;;;;;;;;;5017685;28;20084;-67
2021/10/12 02:52:11;;;;;;;0.85;0.50;;;;;;;;;;5029342;28;20105;-67
2021/10/12 02:54:36;;;;;;;0.95;0.43;;;;;;;;;;5012481;28;20072;-67
2021/10/12 02:57:02;;;;;;;0.40;0.40;;;;;;;;;;5026667;28;20432;-67
2021/10/12 02:59:28;;;;;;;3.35;0.50;;;;;;;;;;5012214;28;20041;-68
2021/10/12 03:01:53;;;;;;;0.80;0.60;;;;;;;;;;5011995;28;20056;-67
2021/10/12 03:04:23;;;;;;;1.08;0.52;;;;;;;;;;5026901;28;20049;-68
2021/10/12 03:06:48;;;;;;;2.47;0.60;;;;;;;;;;5030650;28;20021;-68
2021/10/12 03:09:13;;;;;;;0.60;0.60;;;;;;;;;;5025150;28;20088;-67
2021/10/12 03:11:39;;;;;;;0.60;0.60;;;;;;;;;;5020500;28;20108;-67
2021/10/12 03:14:04;;;;;;;0.50;0.50;;;;;;;;;;5031280;28;20021;-67
2021/10/12 03:16:30;;;;;;;2.15;0.60;;;;;;;;;;5031718;28;20021;-67
2021/10/12 03:18:55;;;;;;;0.77;0.52;;;;;;;;;;5031131;28;20025;-67
2021/10/12 03:21:23;;;;;;;0.90;0.60;;;;;;;;;;5030727;28;20041;-67
2021/10/12 03:23:48;;;;;;;1.75;0.47;;;;;;;;;;5022394;28;20124;-67
2021/10/12 03:26:14;;;;;;;1.38;0.70;;;;;;;;;;5021826;28;20450;-67
2021/10/12 03:28:40;;;;;;;0.80;0.60;;;;;;;;;;5013929;28;20034;-67
2021/10/12 03:31:05;;;;;;;2.30;0.60;;;;;;;;;;5011727;28;20060;-67
2021/10/12 03:33:31;;;;;;;1.45;0.68;;;;;;;;;;5026379;28;20423;-67
2021/10/12 03:36:12;;;;;;;2.10;0.65;;;;;;;;;;5024534;28;20034;-68
2021/10/12 03:38:38;;;;;;;1.23;0.60;;;;;;;;;;5030604;28;20592;-68
2021/10/12 03:41:03;;;;;;;0.63;0.57;;;;;;;;;;5031550;28;20029;-68
2021/10/12 03:43:29;;;;;;;4.78;1.10;;;;;;;;;;5021525;28;20017;-68
2021/10/12 03:45:54;;;;;;;3.42;0.60;;;;;;;;;;5029472;28;20118;-67
2021/10/12 03:48:20;;;;;;;0.77;0.57;;;;;;;;;;5027262;28;20473;-67
2021/10/12 03:50:45;;;;;;;6.20;0.90;;;;;;;;;;5030312;28;20036;-67
2021/10/12 03:53:10;;;;;;;3.83;0.60;;;;;;;;;;5029776;28;20028;-67
2021/10/12 03:55:36;;;;;;;0.60;0.60;;;;;;;;;;5033415;28;20025;-67
2021/10/12 03:58:02;;;;;;;3.05;0.80;;;;;;;;;;5036838;28;20101;-67
2021/10/12 04:00:27;;;;;;;0.70;0.60;;;;;;;;;;5021723;28;20080;-68
2021/10/12 04:02:53;;;;;;;1.08;0.77;;;;;;;;;;5023883;28;20087;-67
2021/10/12 04:05:19;;;;;;;0.80;0.70;;;;;;;;;;5011969;28;20470;-67
2021/10/12 04:07:46;;;;;;;0.73;0.60;;;;;;;;;;5026970;28;20029;-67
2021/10/12 04:10:12;;;;;;;0.77;0.60;;;;;;;;;;5029018;28;20037;-67
2021/10/12 04:12:37;;;;;;;4.18;0.88;;;;;;;;;;5030438;28;20544;-67
2021/10/12 04:15:03;;;;;;;3.35;0.70;;;;;;;;;;5030177;28;20421;-67
2021/10/12 04:17:31;;;;;;;1.67;0.50;;;;;;;;;;5022723;28;20029;-68
2021/10/12 04:19:56;;;;;;;1.27;0.70;;;;;;;;;;5036989;28;20481;-67
2021/10/12 04:22:22;;;;;;;3.38;0.75;;;;;;;;;;5021968;28;20021;-67
2021/10/12 04:24:48;;;;;;;1.25;0.70;;;;;;;;;;5029580;28;20037;-67
2021/10/12 04:27:14;;;;;;;1.10;0.70;;;;;;;;;;5021156;28;20049;-67
2021/10/12 04:29:39;;;;;;;1.25;0.63;;;;;;;;;;5034727;28;20084;-67
2021/10/12 04:32:09;;;;;;;2.75;0.63;;;;;;;;;;5033932;28;20025;-67
2021/10/12 04:34:34;;;;;;;2.38;1.23;;;;;;;;;;5034400;28;20021;-67
2021/10/12 04:36:59;;;;;;;5.40;1.50;;;;;;;;;;5032963;28;20381;-67
2021/10/12 04:39:28;;;;;;;5.82;2.00;;;;;;;;;;5031722;28;20029;-67
2021/10/12 04:41:53;;;;;;;4.53;1.85;;;;;;;;;;5035040;28;20018;-67
2021/10/12 04:44:19;;;;;;;3.42;1.50;;;;;;;;;;5031926;28;20022;-67
2021/10/12 04:46:44;;;;;;;3.47;1.73;;;;;;;;;;5023584;28;20428;-67
2021/10/12 04:49:10;;;;;;;4.95;2.38;;;;;;;;;;5032880;28;20023;-67
2021/10/12 04:51:36;;;;;;;3.33;1.85;;;;;;;;;;5033303;28;20469;-67
2021/10/12 04:54:02;;;;;;;3.58;1.70;;;;;;;;;;5032017;28;20091;-67
2021/10/12 04:56:29;;;;;;;4.07;1.73;;;;;;;;;;5025936;28;20033;-67
2021/10/12 04:58:54;;;;;;;6.35;2.05;;;;;;;;;;5029946;28;20497;-67
2021/10/12 05:01:20;;;;;;;8.05;2.35;;;;;;;;;;5025930;28;20091;-67
2021/10/12 05:03:45;;;;;;;8.90;2.50;;;;;;;;;;5024058;28;20080;-67
2021/10/12 05:06:11;;;;;;;5.20;1.98;;;;;;;;;;5031413;28;20028;-67
2021/10/12 05:08:36;;;;;;;6.68;2.17;;;;;;;;;;5033762;28;20022;-67
2021/10/12 05:11:02;;;;;;;6.60;2.72;;;;;;;;;;5031510;28;20052;-67
2021/10/12 05:13:27;;;;;;;10.70;3.85;;;;;;;;;;5023703;28;20040;-67
2021/10/12 05:15:54;;;;;;;8.65;3.22;;;;;;;;;;5033806;28;20214;-67
2021/10/12 05:18:22;;;;;;;5.57;2.85;;;;;;;;;;5032141;28;20036;-67
2021/10/12 05:20:48;;;;;;;8.10;3.35;;;;;;;;;;5021857;28;20033;-67
2021/10/12 05:23:14;;;;;;;7.28;3.28;;;;;;;;;;5031953;28;20040;-67
2021/10/12 05:25:40;;;;;;;10.43;3.30;;;;;;;;;;5033086;28;20033;-67
2021/10/12 05:28:08;;;;;;;9.18;2.92;;;;;;;;;;5033232;28;20500;-67
2021/10/12 05:30:39;;;;;;;6.70;2.60;;;;;;;;;;5022046;28;20029;-67
2021/10/12 05:33:04;;;;;;;6.07;2.58;;;;;;;;;;5030916;28;20401;-68
2021/10/12 05:35:30;;;;;;;6.43;2.75;;;;;;;;;;5036167;28;20020;-67
2021/10/12 05:37:56;;;;;;;5.03;2.30;;;;;;;;;;5033094;28;20415;-67
2021/10/12 05:40:22;;;;;;;4.90;2.40;;;;;;;;;;5033247;28;20021;-67
2021/10/12 05:42:47;;;;;;;6.50;2.38;;;;;;;;;;5020501;28;20032;-67
2021/10/12 05:45:13;;;;;;;4.80;2.20;;;;;;;;;;5019919;28;20109;-67
2021/10/12 05:47:38;;;;;;;5.13;2.28;;;;;;;;;;5015926;28;20113;-67
2021/10/12 05:50:04;;;;;;;3.38;2.00;;;;;;;;;;5032953;28;20386;-67
2021/10/12 05:52:32;;;;;;;4.38;2.20;;;;;;;;;;5016957;28;20037;-67
2021/10/12 05:55:10;;;;;;;4.47;2.08;;;;;;;;;;5015013;28;20026;-67
2021/10/12 05:57:43;;;;;;;4.03;2.10;;;;;;;;;;5019165;28;20112;-67
2021/10/12 06:00:09;;;;;;;4.38;2.20;;;;;;;;;;5032068;28;20060;-67
2021/10/12 06:02:34;;;;;;;6.82;2.08;;;;;;;;;;5015579;28;20389;-67
2021/10/12 06:05:00;;;;;;;4.95;2.22;;;;;;;;;;5027837;28;20124;-67
2021/10/12 06:07:25;;;;;;;4.03;2.00;;;;;;;;;;5020215;28;20025;-67
2021/10/12 06:09:51;;;;;;;5.47;1.70;;;;;;;;;;5031587;28;20072;-68
2021/10/12 06:12:16;;;;;;;3.95;1.60;;;;;;;;;;5029778;28;20032;-68
2021/10/12 06:14:43;;;;;;;4.97;2.20;;;;;;;;;;5013167;28;20446;-68
2021/10/12 06:17:10;;;;;;;4.35;1.80;;;;;;;;;;5029248;28;20079;-68
2021/10/12 06:19:35;;;;;;;4.38;1.70;;;;;;;;;;5032407;28;20041;-68
2021/10/12 06:22:01;;;;;;;2.80;1.50;;;;;;;;;;5028389;28;20025;-68
2021/10/12 06:24:26;;;;;;;3.00;1.70;;;;;;;;;;5026758;28;20029;-68
2021/10/12 06:26:52;;;;;;;3.03;1.58;;;;;;;;;;5019894;28;20156;-68
2021/10/12 06:29:17;;;;;;;5.35;1.95;;;;;;;;;;5023964;28;20026;-67
2021/10/12 06:31:43;;;;;;;4.82;1.80;;;;;;;;;;5018363;28;20076;-67
2021/10/12 06:34:08;;;;;;;3.75;2.00;;;;;;;;;;5027968;28;20382;-68
2021/10/12 06:36:35;;;;;;;3.92;2.00;;;;;;;;;;5031745;28;20080;-68
2021/10/12 06:39:01;;;;;;;5.25;1.80;;;;;;;;;;5013240;28;20026;-68
2021/10/12 06:41:26;;;;;;;4.80;1.83;;;;;;;;;;5032866;28;20048;-67
2021/10/12 06:43:52;;;;;;;3.38;1.83;;;;;;;;;;5029097;28;20037;-67
2021/10/12 06:46:17;;;;;;;4.78;2.22;;;;;;;;;;5031046;28;20065;-67
2021/10/12 06:48:43;;;;;;;3.33;2.13;;;;;;;;;;5032463;28;20397;-67
2021/10/12 06:51:08;;;;;;;5.05;1.80;;;;;;;;;;5014370;28;20033;-67
2021/10/12 06:53:34;;;;;;;3.33;1.52;;;;;;;;;;5013112;28;20037;-67
2021/10/12 06:55:59;;;;;;;5.32;1.67;;;;;;;;;;5023390;28;20026;-67
2021/10/12 06:58:24;;;;;;;5.13;1.70;;;;;;;;;;5017450;28;20079;-67
2021/10/12 07:00:50;;;;;;;3.92;1.60;;;;;;;;;;5026766;28;20056;-67
2021/10/12 07:03:15;;;;;;;5.28;1.30;;;;;;;;;;5031474;28;20080;-67
2021/10/12 07:05:41;;;;;;;2.28;1.23;;;;;;;;;;5030171;28;20037;-68
2021/10/12 07:08:06;;;;;;;3.03;1.10;;;;;;;;;;5031273;28;20036;-67
2021/10/12 07:10:32;;;;;;;3.67;1.33;;;;;;;;;;5031861;28;20021;-67
2021/10/12 07:12:57;;;;;;;3.22;1.25;;;;;;;;;;5026752;28;20148;-67
2021/10/12 07:15:23;;;;;;;2.65;1.13;;;;;;;;;;5024806;28;21496;-66
2021/10/12 07:17:49;;;;;;;2.72;1.27;;;;;;;;;;5028349;28;20037;-67
2021/10/12 07:20:14;;;;;;;3.42;1.10;;;;;;;;;;5031125;28;20053;-67
2021/10/12 07:22:40;;;;;;;1.88;1.00;;;;;;;;;;5030123;28;20484;-66
2021/10/12 07:25:06;;;;;;;1.85;1.10;;;;;;;;;;5029205;28;20071;-66
2021/10/12 07:27:34;;;;;;;1.23;0.82;;;;;;;;;;5025089;28;20029;-67
2021/10/12 07:30:00;;;;;;;4.00;1.00;;;;;;;;;;5028745;28;20369;-66
2021/10/12 07:32:26;;;;;;;2.03;0.90;;;;;;;;;;5024888;28;20035;-66
2021/10/12 07:34:51;;;;;;;2.28;0.80;;;;;;;;;;5027762;28;20022;-65
2021/10/12 07:37:17;;;;;;;4.45;0.80;;;;;;;;;;5025530;28;20064;-65
2021/10/12 07:39:42;;;;;;;2.90;0.90;;;;;;;;;;5031093;28;20426;-66
2021/10/12 07:42:10;;;;;;;1.63;0.90;;;;;;;;;;5028987;28;20500;-65
2021/10/12 07:44:37;;;;;;;1.90;0.80;;;;;;;;;;5020339;28;20080;-65
2021/10/12 07:47:04;;;;;;;3.00;0.80;;;;;;;;;;5030024;28;20025;-65
2021/10/12 07:49:30;;;;;;;2.53;0.90;;;;;;;;;;5028018;28;20397;-66
2021/10/12 07:51:56;;;;;;;1.40;0.70;;;;;;;;;;5027054;28;20120;-66
2021/10/12 07:54:28;;;;;;;2.72;1.00;;;;;;;;;;5031798;28;20037;-68
2021/10/12 07:56:53;;;;;;;3.40;0.70;;;;;;;;;;5030947;28;20052;-67
2021/10/12 07:59:19;;;;;;;2.30;0.80;;;;;;;;;;5025659;28;20037;-67
2021/10/12 08:01:44;;;;;;;5.65;0.70;;;;;;;;;;5030578;28;20032;-68
2021/10/12 08:04:10;;;;;;;1.17;0.50;;;;;;;;;;5013516;28;20038;-66
2021/10/12 08:06:36;;;;;;;1.60;0.63;;;;;;;;;;5012321;28;20029;-68
2021/10/12 08:09:02;;;;;;;1.75;0.60;;;;;;;;;;5025116;28;20080;-67
2021/10/12 08:11:28;;;;;;;1.85;0.57;;;;;;;;;;5031367;28;20049;-68
2021/10/12 08:14:05;;;;;;;1.25;0.52;;;;;;;;;;5030199;28;20029;-68
2021/10/12 08:16:31;;;;;;;1.63;0.60;;;;;;;;;;5029425;28;20022;-68
2021/10/12 08:18:58;;;;;;;0.95;0.55;;;;;;;;;;5028837;28;20030;-69
2021/10/12 08:21:25;;;;;;;1.75;0.40;;;;;;;;;;5031121;28;20060;-68
2021/10/12 08:23:52;;;;;;;1.27;0.45;;;;;;;;;;5031272;28;20032;-69
2021/10/12 08:26:18;;;;;;;1.73;0.60;;;;;;;;;;5029862;28;20034;-68
2021/10/12 08:28:44;;;;;;;2.35;0.60;;;;;;;;;;5029185;28;20416;-67
2021/10/12 08:31:09;;;;;;;1.23;0.50;;;;;;;;;;5020038;28;20022;-68
2021/10/12 08:33:34;;;;;;;1.27;0.80;;;;;;;;;;5032351;28;20079;-68
2021/10/12 08:36:00;;;;;;;0.98;0.50;;;;;;;;;;5031519;28;20108;-67
2021/10/12 08:38:25;;;;;;;1.55;0.50;;;;;;;;;;5029313;28;20100;-68
2021/10/12 08:40:51;;;;;;;0.73;0.50;;;;;;;;;;5030867;28;20028;-67
2021/10/12 08:43:17;;;;;;;2.15;0.45;;;;;;;;;;5029620;28;20025;-66
2021/10/12 08:45:43;;;;;;;1.45;0.60;;;;;;;;;;5028409;28;20036;-70
2021/10/12 08:48:11;;;;;;;0.80;0.40;;;;;;;;;;5029983;28;20453;-67
2021/10/12 08:50:36;;;;;;;0.80;0.40;;;;;;;;;;5024824;28;20095;-67
2021/10/12 08:53:03;;;;;;;2.00;0.77;;;;;;;;;;5028132;28;20025;-67
2021/10/12 08:55:28;;;;;;;2.47;0.30;;;;;;;;;;5034258;28;20100;-68
2021/10/12 08:57:54;;;;;;;1.58;0.30;;;;;;;;;;5036834;28;20545;-67
2021/10/12 09:00:21;;;;;;;3.47;0.50;;;;;;;;;;5047103;28;20102;-68
2021/10/12 09:03:16;;;;;;;1.35;0.32;;;;;;;;;;5043464;28;20033;-67
2021/10/12 09:06:01;;;;;;;;;;;;;;;;;;5026020;28;20021;-68
2021/10/12 09:08:35;;;;;;;1.55;0.50;;;;;;;;;;5020896;28;19913;-67
2021/10/12 09:11:04;;;;;;;1.73;0.50;;;;;;;;;;5035405;28;20029;-67
2021/10/12 09:13:43;;;;;;;0.47;0.32;;;;;;;;;;5019393;28;20305;-67
2021/10/12 09:16:11;;;;;;;0.40;0.40;;;;;;;;;;5034298;28;20014;-66
2021/10/12 09:18:45;;;;;;;1.30;0.40;;;;;;;;;;5034418;28;20029;-66
2021/10/12 09:21:15;;;;;;;0.85;0.30;;;;;;;;;;5034461;28;20091;-67
2021/10/12 09:23:42;;;;;;;1.85;0.50;;;;;;;;;;5033656;28;20021;-66
2021/10/12 09:26:28;;;;;;;1.30;0.40;;;;;;;;;;5033266;28;20090;-67
2021/10/12 09:29:14;;;;;;;1.17;0.30;;;;;;;;;;5033496;28;20033;-68
2021/10/12 09:31:42;;;;;;;0.68;0.20;;;;;;;;;;5033699;28;20083;-67
2021/10/12 09:34:09;;;;;;;0.40;0.25;;;;;;;;;;5034172;28;20053;-67
2021/10/12 09:36:45;;;;;;;2.67;0.40;;;;;;;;;;5034046;28;20489;-67
2021/10/12 09:39:18;;;;;;;1.42;0.38;;;;;;;;;;5043860;28;20404;-67
2021/10/12 09:41:46;;;;;;;2.15;0.73;;;;;;;;;;5034949;28;20768;-66
2021/10/12 09:44:17;;;;;;;1.83;0.30;;;;;;;;;;5032180;28;20025;-66
2021/10/12 09:46:48;;;;;;;0.52;0.22;;;;;;;;;;5035843;28;20140;-66
2021/10/12 09:49:20;;;;;;;0.88;0.50;;;;;;;;;;5033306;28;20040;-66
2021/10/12 09:52:00;;;;;;;1.15;0.43;;;;;;;;;;5033285;28;20044;-66
2021/10/12 09:54:32;;;;;;;1.95;0.45;;;;;;;;;;5032742;28;20022;-67
2021/10/12 09:56:59;;;;;;;0.90;0.40;;;;;;;;;;5036440;28;20022;-66
2021/10/12 09:59:25;;;;;;;0.75;0.30;;;;;;;;;;5029014;28;20056;-67
2021/10/12 10:01:52;;;;;;;2.30;0.32;;;;;;;;;;5028398;28;20489;-67
2021/10/12 10:04:19;;;;;;;0.60;0.35;;;;;;;;;;5032773;28;20373;-66
2021/10/12 10:06:49;;;;;;;1.30;0.32;;;;;;;;;;5024070;28;20028;-67
2021/10/12 10:09:18;;;;;;;1.10;0.30;;;;;;;;;;5032337;28;20096;-67
2021/10/12 10:11:44;;;;;;;0.45;0.20;;;;;;;;;;5031879;28;20048;-68
2021/10/12 10:14:14;;;;;;;2.50;0.50;;;;;;;;;;5025415;28;20022;-68
2021/10/12 10:16:44;;;;;;;3.53;0.40;;;;;;;;;;5032050;28;20041;-68
2021/10/12 10:19:16;;;;;;;1.42;0.32;;;;;;;;;;5022036;28;20028;-67
2021/10/12 10:21:46;;;;;;;0.52;0.40;;;;;;;;;;5025162;28;20029;-68
2021/10/12 10:24:20;;;;;;;0.82;0.40;;;;;;;;;;5047487;28;20128;-68
2021/10/12 10:26:46;;;;;;;1.60;0.40;;;;;;;;;;5031267;28;20040;-67
2021/10/12 10:29:36;;;;;;;0.80;0.40;;;;;;;;;;5024946;28;20436;-67
2021/10/12 10:32:13;;;;;;;1.05;0.45;;;;;;;;;;5032439;28;20397;-68
2021/10/12 10:34:42;;;;;;;2.70;0.70;;;;;;;;;;5047983;28;20060;-68
2021/10/12 10:37:17;;;;;;;2.15;0.47;;;;;;;;;;5030944;28;20056;-68
2021/10/12 10:39:44;;;;;;;2.42;0.50;;;;;;;;;;5029533;28;20025;-66
2021/10/12 10:42:41;;;;;;;5.50;0.80;;;;;;;;;;5031646;28;20021;-66
2021/10/12 10:45:09;;;;;;;0.68;0.60;;;;;;;;;;5027017;28;20112;-67
2021/10/12 10:47:40;;;;;;;1.50;0.60;;;;;;;;;;5030249;28;20468;-67
2021/10/12 10:50:25;;;;;;;1.13;1.02;;;;;;;;;;5030227;28;20034;-67
2021/10/12 10:52:53;;;;;;;2.03;0.57;;;;;;;;;;5031578;28;20037;-68
2021/10/12 10:55:22;;;;;;;1.60;0.60;;;;;;;;;;5044842;28;20025;-67
2021/10/12 10:58:08;;;;;;;1.38;0.55;;;;;;;;;;5027729;28;20036;-67
2021/10/12 11:00:53;;;;;;;1.77;1.33;;;;;;;;;;5021907;28;20069;-65
2021/10/12 11:03:30;;;;;;;1.40;0.50;;;;;;;;;;5029964;28;20036;-67
2021/10/12 11:06:00;;;;;;;1.42;0.57;;;;;;;;;;5026833;28;20025;-67
2021/10/12 11:08:27;;;;;;;0.77;0.43;;;;;;;;;;5031617;28;20029;-66
2021/10/12 11:10:55;;;;;;;2.05;0.50;;;;;;;;;;5029673;28;20025;-68
2021/10/12 11:13:42;;;;;;;2.47;0.65;;;;;;;;;;5029822;28;20017;-67
2021/10/12 11:16:16;;;;;;;1.52;0.60;;;;;;;;;;5030158;28;20033;-68
2021/10/12 11:18:46;;;;;;;3.40;0.70;;;;;;;;;;5031704;28;20041;-66
2021/10/12 11:21:16;;;;;;;1.98;0.70;;;;;;;;;;5031022;28;20033;-66
2021/10/12 11:23:57;;;;;;;1.42;0.63;;;;;;;;;;5030191;28;20053;-68
2021/10/12 11:26:25;;;;;;;0.85;0.60;;;;;;;;;;5029508;28;20557;-67
2021/10/12 11:28:53;;;;;;;2.72;0.65;;;;;;;;;;5028169;28;20033;-66
2021/10/12 11:31:21;;;;;;;1.63;0.60;;;;;;;;;;5027247;28;20374;-66
2021/10/12 11:33:49;;;;;;;2.15;0.60;;;;;;;;;;5030374;28;20056;-67
2021/10/12 11:36:27;;;;;;;2.20;0.60;;;;;;;;;;5027555;28;20041;-67
2021/10/12 11:38:55;;;;;;;1.85;0.60;;;;;;;;;;5030381;28;20411;-66
2021/10/12 11:41:21;;;;;;;0.55;0.50;;;;;;;;;;5030350;28;20025;-67
2021/10/12 11:43:48;;;;;;;3.45;0.50;;;;;;;;;;5021575;28;20028;-66
2021/10/12 11:46:28;;;;;;;0.55;0.45;;;;;;;;;;5030553;28;20025;-67
2021/10/12 11:48:53;;;;;;;2.28;0.30;;;;;;;;;;5026328;28;20488;-67
2021/10/12 11:51:29;;;;;;;1.55;0.40;;;;;;;;;;5024718;28;20045;-67
2021/10/12 11:53:56;;;;;;;1.85;0.50;;;;;;;;;;5025047;28;20033;-67
2021/10/12 11:56:23;;;;;;;0.40;0.40;;;;;;;;;;5029883;28;20013;-67
2021/10/12 11:58:56;;;;;;;1.92;0.68;;;;;;;;;;5030249;28;20124;-65
2021/10/12 12:01:26;;;;;;;0.98;0.32;;;;;;;;;;5027223;28;20582;-66
2021/10/12 12:03:59;;;;;;;1.80;0.93;;;;;;;;;;5025471;28;20601;-66
2021/10/12 12:06:29;;;;;;;1.23;0.50;;;;;;;;;;5028172;28;20052;-66
2021/10/12 12:08:58;;;;;;;0.30;0.30;;;;;;;;;;5030962;28;20025;-66
2021/10/12 12:11:26;;;;;;;1.75;0.50;;;;;;;;;;5030938;28;20428;-65
2021/10/12 12:13:56;;;;;;;0.47;0.45;;;;;;;;;;5027693;28;20478;-66
2021/10/12 12:16:23;;;;;;;1.80;0.55;;;;;;;;;;5030219;28;20018;-66
2021/10/12 12:18:49;;;;;;;6.93;0.60;;;;;;;;;;5031300;28;20079;-68
2021/10/12 12:21:26;;;;;;;1.13;0.70;;;;;;;;;;5028309;28;20398;-66
2021/10/12 12:23:55;;;;;;;3.35;0.50;;;;;;;;;;5022618;28;20021;-65
2021/10/12 12:26:23;;;;;;;2.05;0.60;;;;;;;;;;5022399;28;20061;-66
2021/10/12 12:28:49;;;;;;;1.17;0.55;;;;;;;;;;5016864;28;20144;-66
2021/10/12 12:31:17;;;;;;;1.30;0.60;;;;;;;;;;5028783;28;20033;-67
2021/10/12 12:33:43;;;;;;;1.23;0.57;;;;;;;;;;5031961;28;20030;-66
2021/10/12 12:36:09;;;;;;;1.48;0.40;;;;;;;;;;5030174;28;20079;-67
2021/10/12 12:38:34;;;;;;;0.57;0.50;;;;;;;;;;5029763;28;20025;-66
2021/10/12 12:41:00;;;;;;;1.30;0.50;;;;;;;;;;5029269;28;20044;-67
2021/10/12 12:43:32;;;;;;;0.52;0.50;;;;;;;;;;5029538;28;20075;-67
2021/10/12 12:46:15;;;;;;;1.38;0.70;;;;;;;;;;5035003;28;20105;-67
2021/10/12 12:48:43;;;;;;;2.03;0.52;;;;;;;;;;5055577;28;20129;-67
2021/10/12 12:51:10;;;;;;;1.95;0.52;;;;;;;;;;5032794;28;20068;-65
2021/10/12 12:53:47;;;;;;;1.30;0.60;;;;;;;;;;5032183;28;20033;-67
2021/10/12 12:56:15;;;;;;;1.15;0.50;;;;;;;;;;5033544;28;20637;-67
2021/10/12 12:58:42;;;;;;;0.98;0.60;;;;;;;;;;5034582;28;20030;-67
2021/10/12 13:01:13;;;;;;;1.70;0.50;;;;;;;;;;5032294;28;20033;-67
2021/10/12 13:03:39;;;;;;;2.75;0.80;;;;;;;;;;5033894;28;20589;-67
2021/10/12 13:06:05;;;;;;;1.65;0.60;;;;;;;;;;5030052;28;20022;-65
2021/10/12 13:08:31;;;;;;;0.77;0.57;;;;;;;;;;5028357;28;20129;-66
2021/10/12 13:10:56;;;;;;;2.67;0.82;;;;;;;;;;5034299;28;20481;-67
2021/10/12 13:13:22;;;;;;;1.17;0.60;;;;;;;;;;5029331;28;20060;-67
2021/10/12 13:15:47;;;;;;;0.80;0.70;;;;;;;;;;5029677;28;20034;-67
2021/10/12 13:18:13;;;;;;;1.40;0.60;;;;;;;;;;5031578;28;20104;-67
2021/10/12 13:20:39;;;;;;;0.75;0.63;;;;;;;;;;5024985;28;20040;-67
2021/10/12 13:23:05;;;;;;;0.63;0.50;;;;;;;;;;5032617;28;20474;-67
2021/10/12 13:25:30;;;;;;;1.25;0.40;;;;;;;;;;5033312;28;20025;-67
2021/10/12 13:27:56;;;;;;;0.65;0.50;;;;;;;;;;5027359;28;20029;-68
2021/10/12 13:30:23;;;;;;;2.45;0.70;;;;;;;;;;5031933;28;20053;-66
2021/10/12 13:32:48;;;;;;;3.58;0.82;;;;;;;;;;5029495;28;20618;-65
2021/10/12 13:35:14;;;;;;;1.13;0.70;;;;;;;;;;5038696;28;20056;-70
2021/10/12 13:37:41;;;;;;;3.47;0.90;;;;;;;;;;5033348;28;20057;-67
2021/10/12 13:40:07;;;;;;;1.27;0.60;;;;;;;;;;5034332;28;20021;-68
2021/10/12 13:42:33;;;;;;;2.47;0.85;;;;;;;;;;5033661;28;20068;-67
2021/10/12 13:44:58;;;;;;;1.00;0.70;;;;;;;;;;5033944;28;20068;-68
2021/10/12 13:47:24;;;;;;;0.70;0.60;;;;;;;;;;5032860;28;20075;-67
2021/10/12 13:49:50;;;;;;;1.77;0.70;;;;;;;;;;5031723;28;20021;-66
2021/10/12 13:52:17;;;;;;;0.90;0.77;;;;;;;;;;5034759;28;20562;-66
2021/10/12 13:54:42;;;;;;;0.68;0.40;;;;;;;;;;5032116;28;20025;-66
2021/10/12 13:57:09;;;;;;;0.85;0.60;;;;;;;;;;5037512;28;20087;-66
2021/10/12 13:59:34;;;;;;;0.57;0.43;;;;;;;;;;5033592;28;20069;-66
2021/10/12 14:02:00;;;;;;;1.40;0.60;;;;;;;;;;5032318;28;20069;-67
2021/10/12 14:04:25;;;;;;;2.17;0.90;;;;;;;;;;5032635;28;20025;-67
2021/10/12 14:06:50;;;;;;;0.73;0.60;;;;;;;;;;5045242;28;20113;-68
2021/10/12 14:09:16;;;;;;;1.00;0.50;;;;;;;;;;5037213;28;20110;-67
2021/10/12 14:11:46;;;;;;;1.55;0.52;;;;;;;;;;5031627;28;20079;-68
2021/10/12 14:14:12;;;;;;;3.60;1.17;;;;;;;;;;5032729;28;20389;-67
2021/10/12 14:16:37;;;;;;;1.05;0.65;;;;;;;;;;5032950;28;20029;-65
2021/10/12 14:19:03;;;;;;;2.15;0.70;;;;;;;;;;5028428;28;20033;-68
2021/10/12 14:21:28;;;;;;;1.58;0.65;;;;;;;;;;5029608;28;20038;-65
2021/10/12 14:23:55;;;;;;;2.80;0.63;;;;;;;;;;5033018;28;20030;-66
2021/10/12 14:26:22;;;;;;;0.82;0.60;;;;;;;;;;5034816;28;20040;-66
2021/10/12 14:28:48;;;;;;;2.22;0.80;;;;;;;;;;5031744;28;20064;-66
2021/10/12 14:31:16;;;;;;;4.57;0.85;;;;;;;;;;5032644;28;20041;-65
2021/10/12 14:33:42;;;;;;;1.80;0.60;;;;;;;;;;5031535;28;20039;-65
2021/10/12 14:36:07;;;;;;;1.17;0.70;;;;;;;;;;5030967;28;20017;-68
2021/10/12 14:38:33;;;;;;;2.97;0.63;;;;;;;;;;5032074;28;20022;-67
2021/10/12 14:40:58;;;;;;;0.63;0.60;;;;;;;;;;5033035;28;20087;-67
2021/10/12 14:43:24;;;;;;;4.82;0.70;;;;;;;;;;5032133;28;20037;-67
2021/10/12 14:45:49;;;;;;;0.60;0.60;;;;;;;;;;5032878;28;20029;-67